SWA2893 KLAX-KSFO
Flight info
| Callsign | SWA2893 |
|---|---|
| Flight time | N/A |
| Altitude | 38000 |
| Route | SUMMR2 STOKD SERFR SERFR4 |
| Aircraft | B738/M-VGDW/C |
Departure
| Time | 2026-04-20 21:29 |
|---|---|
| Airport | Los Angeles International Airport (KLAX) |
Arrival
| Time | N/A |
|---|---|
| Airport | San Francisco International Airport (KSFO) |
| Time | Latitude | Longitude | Altitude | Speed | Heading |
|---|---|---|---|---|---|
| 2026-04-20 21:16 | 33.94793 | -118.40128 | 126 ft | 0 kts | 188° |
| 2026-04-20 21:19 | 33.94797 | -118.40127 | 126 ft | 2 kts | 188° |
| 2026-04-20 21:20 | 33.94821 | -118.40130 | 126 ft | 2 kts | 147° |
| 2026-04-20 21:20 | 33.94832 | -118.40142 | 125 ft | 2 kts | 118° |
| 2026-04-20 21:20 | 33.94836 | -118.40160 | 125 ft | 1 kts | 90° |
| 2026-04-20 21:20 | 33.94836 | -118.40167 | 125 ft | 1 kts | 79° |
| 2026-04-20 21:21 | 33.94835 | -118.40171 | 125 ft | 0 kts | 83° |
| 2026-04-20 21:23 | 33.94836 | -118.40167 | 125 ft | 3 kts | 83° |
| 2026-04-20 21:23 | 33.94844 | -118.40107 | 125 ft | 8 kts | 65° |
| 2026-04-20 21:24 | 33.94895 | -118.40080 | 123 ft | 8 kts | 28° |
| 2026-04-20 21:24 | 33.94926 | -118.40010 | 121 ft | 10 kts | 79° |
| 2026-04-20 21:24 | 33.94933 | -118.39960 | 119 ft | 0 kts | 73° |
| 2026-04-20 21:25 | 33.94933 | -118.39958 | 119 ft | 0 kts | 73° |
| 2026-04-20 21:25 | 33.94935 | -118.39950 | 119 ft | 1 kts | 71° |
| 2026-04-20 21:25 | 33.94937 | -118.39945 | 119 ft | 0 kts | 62° |
| 2026-04-20 21:27 | 33.94942 | -118.39938 | 119 ft | 4 kts | 47° |
| 2026-04-20 21:27 | 33.94977 | -118.39919 | 118 ft | 6 kts | 9° |
| 2026-04-20 21:27 | 33.95019 | -118.39924 | 117 ft | 6 kts | 333° |
| 2026-04-20 21:28 | 33.95039 | -118.39960 | 118 ft | 4 kts | 280° |
| 2026-04-20 21:28 | 33.95039 | -118.39990 | 118 ft | 2 kts | 263° |
| 2026-04-20 21:28 | 33.95038 | -118.39996 | 118 ft | 0 kts | 262° |
| 2026-04-20 21:29 | 33.95024 | -118.40129 | 119 ft | 48 kts | 262° |
| 2026-04-20 21:29 | 33.94954 | -118.40810 | 128 ft | 112 kts | 263° |
| 2026-04-20 21:29 | 33.94838 | -118.41962 | 132 ft | 164 kts | 263° |
| 2026-04-20 21:29 | 33.94750 | -118.43353 | 742 ft | 164 kts | 266° |
| 2026-04-20 21:30 | 33.94694 | -118.44729 | 1336 ft | 173 kts | 264° |
| 2026-04-20 21:30 | 33.94519 | -118.46207 | 1879 ft | 186 kts | 261° |
| 2026-04-20 21:30 | 33.94353 | -118.47830 | 2409 ft | 202 kts | 265° |
| 2026-04-20 21:30 | 33.94275 | -118.49537 | 2963 ft | 218 kts | 268° |
| 2026-04-20 21:31 | 33.94215 | -118.51493 | 3373 ft | 245 kts | 268° |
| 2026-04-20 21:31 | 33.94103 | -118.53548 | 4268 ft | 250 kts | 265° |
| 2026-04-20 21:31 | 33.93926 | -118.55660 | 4958 ft | 263 kts | 263° |
| 2026-04-20 21:31 | 33.93734 | -118.57876 | 5837 ft | 268 kts | 264° |
| 2026-04-20 21:32 | 33.93538 | -118.60162 | 6418 ft | 285 kts | 263° |
| 2026-04-20 21:32 | 33.93336 | -118.62533 | 7575 ft | 278 kts | 263° |
| 2026-04-20 21:32 | 33.93255 | -118.63494 | 7931 ft | 280 kts | 262° |